Strona główna
METAR-TAF:

METAR-TAF

Lotnisko :

Port lotniczy Kordoba

Kordoba, Hiszpania

Szerokość geograficzna: 37-51N, Długość geograficzna: 004-51W, wysokość: 90 m

Aktualna obserwacja pogody

Raport powstał 30 minut temu, godzina 18:30 UTC
Wiatr 9 kt od zachód, zmienny między południowy zachód i północny zachód
Temperatura 35°C
Wilgotność 27%
Ciśnienie 1005 hPa
Widzialność 10 km lub więcej
Brak chmur poniżej 1500 m i brak chmur cumulonimbus

METAR: LEBA 251830Z AUTO 26009KT 220V310 CAVOK 35/13 Q1005

czas: 21:00 (19:00 UTC)

Prognoza

Raport powstał 5 godziny i 0 minut temu, godzina 14:00 UTC
Prognoza ważna od 25 godzina 15 UTC do 26 godzina 15 UTC
Wiatr 7 kt od zachodnio-południowy zachód
Widzialność 10 km lub więcej
Brak chmur poniżej 1500 m i brak chmur cumulonimbus

TAF: LEBA 251400Z 2515/2615 25007KT CAVOK TX38/2515Z TN21/2605Z

Obserwacja i prognoza pogody dla ponad 4000 lotnisk (raport METAR i TAF).

Dostępne stacje oznaczono żółtymi i czerwonymi punktami na mapie.

Najedź kursorem aby zobaczyć nazwę stacji.

Kliknij aby zobaczyć obserwacje i prognozy pogody.

Aby zmienić mapę: kliknij na zielony przycisk z czarnym krzyżykiem, aby powiększyć; na zielony przycisk z myślnikiem, aby pomniejszyć; na zielone strzałki, aby przejść do map sąsiednich.


METAR-TAF: